createdAt,value
2019-04-21T00:04:50.876Z,101275.49
2019-04-21T00:10:06.346Z,101268.02
2019-04-21T00:15:04.727Z,101264.56
2019-04-21T00:20:12.676Z,101254.50
2019-04-21T00:25:23.523Z,101248.89
2019-04-21T00:30:34.127Z,101255.62
2019-04-21T00:35:23.988Z,101250.72
2019-04-21T00:40:47.881Z,101250.67
2019-04-21T00:45:41.840Z,101247.58
2019-04-21T00:51:10.988Z,101236.73
2019-04-21T01:01:12.613Z,101218.59
2019-04-21T01:06:21.264Z,101219.33
2019-04-21T01:11:17.896Z,101219.66
2019-04-21T01:16:28.789Z,101219.32
2019-04-21T01:21:14.033Z,101220.25
2019-04-21T01:26:29.041Z,101215.61
2019-04-21T01:31:36.296Z,101216.86
2019-04-21T01:36:38.713Z,101218.50
2019-04-21T01:41:52.530Z,101214.75
2019-04-21T01:46:53.281Z,101221.27
2019-04-21T01:52:08.912Z,101213.85
2019-04-21T01:57:12.330Z,101207.33
2019-04-21T02:02:19.419Z,101205.48
2019-04-21T02:07:27.499Z,101202.77
2019-04-21T02:12:36.038Z,101201.13
2019-04-21T02:17:38.405Z,101198.23
2019-04-21T02:23:00.453Z,101200.98
2019-04-21T02:27:49.816Z,101206.53
2019-04-21T02:33:08.679Z,101205.02
2019-04-21T02:38:10.211Z,101220.84
2019-04-21T02:48:51.461Z,101212.47
2019-04-21T02:53:39.098Z,101200.50
2019-04-21T02:58:41.594Z,101213.78
2019-04-21T03:03:43.630Z,101203.11
2019-04-21T03:24:15.296Z,101195.98
2019-04-21T03:34:51.203Z,101188.36
2019-04-21T03:39:29.528Z,101187.48
2019-04-21T03:44:32.720Z,101189.05
2019-04-21T03:49:47.745Z,101189.48
2019-04-21T03:55:12.554Z,101191.23
2019-04-21T04:00:10.957Z,101194.75
2019-04-21T04:05:31.637Z,101198.58
2019-04-21T04:10:13.535Z,101211.19
2019-04-21T04:20:28.037Z,101201.86
2019-04-21T04:25:27.356Z,101199.50
2019-04-21T04:30:39.547Z,101199.77
2019-04-21T04:35:54.280Z,101200.96
2019-04-21T04:45:58.968Z,101189.81
2019-04-21T04:51:14.477Z,101192.16
2019-04-21T05:21:40.546Z,101192.19
2019-04-21T05:26:33.145Z,101178.52
2019-04-21T05:32:08.087Z,101176.77
2019-04-21T05:37:14.201Z,101179.56
2019-04-21T05:42:05.134Z,101157.65
2019-04-21T05:47:35.397Z,101160.01
2019-04-21T05:52:27.554Z,101147.67
2019-04-21T05:57:38.225Z,101144.19
2019-04-21T06:02:56.348Z,101144.32
2019-04-21T06:07:52.433Z,101144.46
2019-04-21T06:13:07.130Z,101131.09
2019-04-21T06:18:04.557Z,101137.97
2019-04-21T06:23:11.531Z,101147.20
2019-04-21T06:28:20.974Z,101130.80
2019-04-21T06:33:19.911Z,101128.52
2019-04-21T06:38:43.254Z,101131.71
2019-04-21T06:43:50.655Z,101125.41
2019-04-21T06:48:49.358Z,101122.58
2019-04-21T06:53:59.547Z,101125.04
2019-04-21T06:58:55.932Z,101123.02
2019-04-21T07:04:11.245Z,101121.43
2019-04-21T07:09:17.392Z,101116.87
2019-04-21T07:14:27.215Z,101113.22
2019-04-21T07:24:30.413Z,101121.94
2019-04-21T07:29:34.553Z,101132.66
2019-04-21T07:39:40.268Z,101133.06
2019-04-21T07:44:40.838Z,101114.95
2019-04-21T07:49:57.477Z,101119.66
2019-04-21T07:55:05.892Z,101121.75
2019-04-21T08:00:14.989Z,101127.96
2019-04-21T08:05:13.114Z,101130.70
2019-04-21T08:10:10.503Z,101129.03
2019-04-21T08:15:19.462Z,101110.04
2019-04-21T08:20:23.991Z,101115.19
2019-04-21T08:25:30.790Z,101114.06
2019-04-21T08:30:47.956Z,101125.67
2019-04-21T08:40:40.744Z,101096.53
2019-04-21T08:46:09.721Z,101101.81
2019-04-21T08:51:06.302Z,101096.04
2019-04-21T08:56:12.215Z,101084.19
2019-04-21T09:01:24.216Z,101091.41
2019-04-21T09:06:40.224Z,101083.28
2019-04-21T09:11:28.786Z,101082.93
2019-04-21T09:16:35.208Z,101077.22
2019-04-21T09:21:43.778Z,101081.66
2019-04-21T09:26:48.087Z,101069.08
2019-04-21T09:31:39.747Z,101060.55
2019-04-21T09:36:46.716Z,101066.94
2019-04-21T09:41:45.195Z,101061.20
2019-04-21T09:46:54.815Z,101056.65
2019-04-21T09:51:55.703Z,101050.84
2019-04-21T09:57:04.018Z,101044.80
2019-04-21T10:02:13.603Z,101038.57
2019-04-21T10:07:23.675Z,101018.49
2019-04-21T10:12:16.241Z,101018.49
2019-04-21T10:17:21.836Z,101004.93
2019-04-21T10:22:26.713Z,101004.93
2019-04-21T10:27:31.865Z,100990.38
2019-04-21T10:32:36.429Z,100986.56
2019-04-21T10:37:50.824Z,100984.93
2019-04-21T10:42:46.039Z,100967.72
2019-04-21T10:47:49.982Z,100957.78
2019-04-21T10:53:04.935Z,100956.47
2019-04-21T10:58:10.852Z,100954.30
2019-04-21T11:03:26.713Z,100937.02
2019-04-21T11:08:37.453Z,100940.68
2019-04-21T11:13:36.909Z,100929.59
2019-04-21T11:18:41.958Z,100925.03
2019-04-21T11:23:45.962Z,100917.05
2019-04-21T11:28:50.583Z,100929.19
2019-04-21T11:33:55.389Z,100916.73
2019-04-21T11:39:12.591Z,100909.35
2019-04-21T11:44:07.676Z,100896.72
2019-04-21T11:49:12.608Z,100901.19
2019-04-21T11:54:17.053Z,100891.02
2019-04-21T11:59:21.769Z,100888.77
2019-04-21T12:04:25.570Z,100882.63
2019-04-21T12:09:29.337Z,100881.79
2019-04-21T12:14:34.188Z,100864.16
2019-04-21T12:19:38.749Z,100858.81
2019-04-21T12:24:43.015Z,100853.25
2019-04-21T12:29:48.015Z,100850.39
2019-04-21T12:34:53.461Z,100835.02
2019-04-21T12:39:58.869Z,100826.38
2019-04-21T12:45:03.604Z,100821.97
2019-04-21T12:50:08.629Z,100800.59
2019-04-21T12:55:13.464Z,100791.66
2019-04-21T13:00:18.812Z,100791.28
2019-04-21T13:05:22.361Z,100792.95
2019-04-21T13:10:26.405Z,100783.97
2019-04-21T13:15:31.330Z,100775.68
2019-04-21T13:20:35.930Z,100764.53
2019-04-21T13:25:39.594Z,100759.48
2019-04-21T13:30:44.418Z,100754.23
2019-04-21T13:35:48.844Z,100752.21
2019-04-21T13:41:16.235Z,100746.92
2019-04-21T13:46:05.893Z,100735.63
2019-04-21T13:51:09.597Z,100732.81
2019-04-21T13:56:14.300Z,100723.24
2019-04-21T14:01:18.156Z,100717.87
2019-04-21T14:06:22.558Z,100706.09
2019-04-21T14:11:27.210Z,100693.05
2019-04-21T14:16:31.983Z,100688.20
2019-04-21T14:21:36.961Z,100679.24
2019-04-21T14:26:40.753Z,100682.51
2019-04-21T14:31:46.348Z,100681.75
2019-04-21T14:36:50.814Z,100669.89
2019-04-21T14:41:54.456Z,100668.70
2019-04-21T14:47:00.832Z,100663.13
2019-04-21T14:52:07.217Z,100657.05
2019-04-21T14:57:11.439Z,100656.22
2019-04-21T15:02:16.065Z,100653.70
2019-04-21T15:07:21.322Z,100653.11
2019-04-21T15:12:25.806Z,100644.78
2019-04-21T15:17:29.637Z,100639.86
2019-04-21T15:22:34.494Z,100633.95
2019-04-21T15:27:39.057Z,100626.83
2019-04-21T15:32:42.752Z,100621.08
2019-04-21T15:37:46.435Z,100619.39
2019-04-21T15:42:50.571Z,100612.28
2019-04-21T15:47:54.236Z,100606.64
2019-04-21T15:52:59.386Z,100605.26
2019-04-21T15:58:22.893Z,100604.79
2019-04-21T16:03:26.834Z,100601.31
2019-04-21T16:08:31.190Z,100597.42
2019-04-21T16:13:34.818Z,100591.17
2019-04-21T16:18:38.469Z,100586.82
2019-04-21T16:23:42.537Z,100579.73
2019-04-21T16:28:46.928Z,100575.79
2019-04-21T16:33:51.287Z,100574.03
2019-04-21T16:38:55.627Z,100570.59
2019-04-21T16:44:00.827Z,100561.75
2019-04-21T16:49:05.267Z,100554.28
2019-04-21T16:54:10.405Z,100552.55
2019-04-21T16:59:18.901Z,100554.33
2019-04-21T17:04:22.608Z,100555.23
2019-04-21T17:09:26.625Z,100548.19
2019-04-21T17:16:24.410Z,100544.22
2019-04-21T17:19:43.000Z,100537.14
2019-04-21T17:24:42.246Z,100535.36
2019-04-21T17:29:46.318Z,100534.89
2019-04-21T17:34:50.920Z,100535.33
2019-04-21T17:39:56.853Z,100536.66
2019-04-21T17:45:01.314Z,100536.16
2019-04-21T17:50:23.443Z,100542.77
2019-04-21T17:55:40.620Z,100540.98
2019-04-21T18:01:13.974Z,100538.34
2019-04-21T18:06:02.497Z,100540.45
2019-04-21T18:11:07.805Z,100534.61
2019-04-21T18:16:16.179Z,100540.73
2019-04-21T18:21:18.639Z,100536.70
2019-04-21T18:26:35.012Z,100538.05
2019-04-21T18:31:33.964Z,100536.20
2019-04-21T18:36:41.624Z,100533.52
2019-04-21T18:42:05.301Z,100538.73
2019-04-21T18:47:15.421Z,100538.20
2019-04-21T18:52:19.917Z,100542.48
2019-04-21T18:57:23.102Z,100544.55
2019-04-21T19:02:24.453Z,100540.06
2019-04-21T19:07:48.074Z,100543.42
2019-04-21T19:13:20.413Z,100541.66
2019-04-21T19:18:28.086Z,100533.16
2019-04-21T19:22:57.210Z,100532.64
2019-04-21T19:28:12.163Z,100537.43
2019-04-21T19:33:10.289Z,100533.78
2019-04-21T19:38:06.371Z,100530.00
2019-04-21T19:43:30.667Z,100535.66
2019-04-21T19:48:28.036Z,100527.14
2019-04-21T19:53:33.004Z,100520.40
2019-04-21T19:58:29.878Z,100516.69
2019-04-21T20:03:28.489Z,100514.41
2019-04-21T20:08:43.257Z,100506.80
2019-04-21T20:14:38.908Z,100506.72
2019-04-21T20:18:49.549Z,100503.91
2019-04-21T20:23:49.458Z,100505.58
2019-04-21T20:29:04.566Z,100498.84
2019-04-21T20:34:17.628Z,100495.96
2019-04-21T20:39:13.194Z,100491.02
2019-04-21T20:44:29.549Z,100487.40
2019-04-21T20:49:27.528Z,100481.61
2019-04-21T20:54:42.053Z,100477.85
2019-04-21T20:59:40.940Z,100474.20
2019-04-21T21:04:43.453Z,100469.78
2019-04-21T21:10:00.394Z,100472.75
2019-04-21T21:14:57.090Z,100463.47
2019-04-21T21:20:12.701Z,100469.84
2019-04-21T21:25:19.346Z,100459.22
2019-04-21T21:30:17.491Z,100462.73
2019-04-21T21:35:21.529Z,100453.02
2019-04-21T21:40:34.943Z,100451.67
2019-04-21T21:45:19.922Z,100441.72
2019-04-21T21:50:29.500Z,100433.40
2019-04-21T21:55:28.663Z,100437.88
2019-04-21T22:00:36.944Z,100435.51
2019-04-21T22:05:46.541Z,100427.84
2019-04-21T22:10:47.358Z,100431.24
2019-04-21T22:15:56.462Z,100427.67
2019-04-21T22:21:10.011Z,100425.89
2019-04-21T22:26:05.388Z,100433.56
2019-04-21T22:31:15.199Z,100448.25
2019-04-21T22:36:29.187Z,100441.52
2019-04-21T22:41:30.347Z,100431.58
2019-04-21T22:46:26.809Z,100432.16
2019-04-21T22:51:37.455Z,100430.08
2019-04-21T22:56:48.169Z,100429.27
2019-04-21T23:01:47.460Z,100429.20
2019-04-21T23:06:56.590Z,100435.30
2019-04-21T23:11:56.605Z,100435.17
2019-04-21T23:17:24.252Z,100445.17
2019-04-21T23:22:21.793Z,100436.77
2019-04-21T23:27:26.320Z,100436.63
2019-04-21T23:32:30.544Z,100445.58
2019-04-21T23:37:25.625Z,100440.47
2019-04-21T23:42:35.937Z,100428.98
2019-04-21T23:47:50.847Z,100430.54
2019-04-21T23:52:41.591Z,100431.19
2019-04-21T23:57:48.135Z,100433.33
